Time;durP1;ratioP1;P1;durP2;ratioP2;P2;SDS_P1;SDS_P2;PMS_P1;PMS_P2;Temp;Humidity;BMP_temperature;BMP_pressure;BME280_temperature;BME280_humidity;BME280_pressure;Samples;Min_cycle;Max_cycle;Signal;HPM_P1;HPM_P2
2022/12/15 00:38:44;;;;;;;31.27;16.13;;;;;;;;;;5053561;28;20090;-59
2022/12/15 00:41:11;;;;;;;28.35;15.10;;;;;;;;;;5052511;28;20071;-61
2022/12/15 00:43:37;;;;;;;29.90;15.32;;;;;;;;;;5051510;28;20044;-61
2022/12/15 00:48:49;;;;;;;31.92;15.68;;;;;;;;;;5053489;28;20523;-61
2022/12/15 00:51:15;;;;;;;33.45;16.88;;;;;;;;;;5049836;28;20025;-60
2022/12/15 01:21:09;;;;;;;32.03;15.68;;;;;;;;;;5033137;28;20132;-61
2022/12/15 01:23:36;;;;;;;31.00;14.75;;;;;;;;;;5031975;28;20074;-61
2022/12/15 01:26:02;;;;;;;28.20;15.15;;;;;;;;;;5032909;28;20029;-62
2022/12/15 01:28:28;;;;;;;34.17;15.52;;;;;;;;;;5031525;28;20083;-62
2022/12/15 01:30:54;;;;;;;28.40;14.32;;;;;;;;;;5032885;28;20029;-62
2022/12/15 01:33:20;;;;;;;27.23;14.98;;;;;;;;;;5031810;28;20382;-62
2022/12/15 01:35:56;;;;;;;30.15;14.60;;;;;;;;;;5031501;28;20064;-59
2022/12/15 01:38:22;;;;;;;33.30;14.77;;;;;;;;;;5031197;28;20169;-60
2022/12/15 01:40:53;;;;;;;33.53;16.60;;;;;;;;;;5032735;28;20018;-62
2022/12/15 01:43:21;;;;;;;30.63;16.15;;;;;;;;;;5031766;28;20029;-62
2022/12/15 01:45:47;;;;;;;;;;;;;;;;;;5031607;28;20025;-64
2022/12/15 01:48:14;;;;;;;29.38;15.88;;;;;;;;;;5032628;28;20444;-61
2022/12/15 01:50:43;;;;;;;33.63;14.95;;;;;;;;;;5032536;28;20112;-63
2022/12/15 01:53:10;;;;;;;32.08;15.73;;;;;;;;;;5050975;28;20035;-62
2022/12/15 01:55:38;;;;;;;28.60;15.63;;;;;;;;;;5050985;28;20028;-61
2022/12/15 01:58:06;;;;;;;27.42;14.80;;;;;;;;;;5050763;28;20132;-61
2022/12/15 02:00:32;;;;;;;;;;;;;;;;;;5042531;28;20433;-63
2022/12/15 02:02:58;;;;;;;31.58;15.45;;;;;;;;;;5030871;28;19913;-61
2022/12/15 02:05:24;;;;;;;29.65;14.27;;;;;;;;;;5047255;28;20075;-61
2022/12/15 02:07:50;;;;;;;29.27;15.77;;;;;;;;;;5050635;28;20386;-62
2022/12/15 02:10:16;;;;;;;28.48;16.45;;;;;;;;;;5050735;28;20047;-64
2022/12/15 02:12:42;;;;;;;29.13;14.90;;;;;;;;;;5052162;28;20567;-62
2022/12/15 02:15:08;;;;;;;31.73;17.33;;;;;;;;;;5051368;28;20025;-63
2022/12/15 02:17:34;;;;;;;31.55;15.43;;;;;;;;;;5035112;28;20025;-61
2022/12/15 02:20:09;;;;;;;31.98;15.73;;;;;;;;;;5030818;28;20024;-61
2022/12/15 02:22:47;;;;;;;28.10;13.75;;;;;;;;;;5030618;28;20480;-61
2022/12/15 02:25:31;;;;;;;29.00;13.70;;;;;;;;;;5031370;28;20061;-60
2022/12/15 02:28:16;;;;;;;34.25;17.05;;;;;;;;;;5031604;28;20501;-61
2022/12/15 02:31:48;;;;;;;35.70;16.85;;;;;;;;;;5032151;28;20400;-62
2022/12/15 02:33:40;;;;;;;31.98;16.77;;;;;;;;;;5031199;28;20037;-62
2022/12/15 02:36:17;;;;;;;27.75;14.98;;;;;;;;;;5030517;28;20037;-62
2022/12/15 02:38:43;;;;;;;32.47;15.93;;;;;;;;;;5030750;28;20145;-62
2022/12/15 02:41:50;;;;;;;32.63;16.80;;;;;;;;;;5032056;28;20032;-62
2022/12/15 02:44:24;;;;;;;36.25;16.08;;;;;;;;;;5009615;28;20036;-61
2022/12/15 02:47:08;;;;;;;34.83;15.73;;;;;;;;;;5010341;28;20060;-62
2022/12/15 02:49:40;;;;;;;28.80;15.65;;;;;;;;;;5024186;28;20061;-61
2022/12/15 02:52:36;;;;;;;31.95;15.48;;;;;;;;;;5031130;28;20033;-62
2022/12/15 02:55:12;;;;;;;36.00;16.05;;;;;;;;;;5046189;28;20040;-61
2022/12/15 02:57:41;;;;;;;34.38;16.17;;;;;;;;;;5050139;28;20017;-61
2022/12/15 03:00:08;;;;;;;31.55;16.27;;;;;;;;;;5051508;28;20090;-61
2022/12/15 03:02:37;;;;;;;31.43;16.43;;;;;;;;;;5051504;28;20481;-61
2022/12/15 03:05:04;;;;;;;31.17;15.27;;;;;;;;;;5049358;28;20040;-61
2022/12/15 03:07:30;;;;;;;30.65;14.80;;;;;;;;;;5051333;28;20075;-60
2022/12/15 03:09:57;;;;;;;33.08;16.80;;;;;;;;;;5051270;28;20558;-60
2022/12/15 03:12:23;;;;;;;26.10;15.05;;;;;;;;;;5051473;28;20112;-61
2022/12/15 03:14:49;;;;;;;33.63;16.08;;;;;;;;;;5049289;28;20120;-62
2022/12/15 03:17:15;;;;;;;27.85;15.30;;;;;;;;;;5051417;28;20028;-61
2022/12/15 03:19:40;;;;;;;28.77;16.13;;;;;;;;;;5051287;28;20477;-58
2022/12/15 03:22:07;;;;;;;27.42;15.23;;;;;;;;;;5050075;28;20143;-62
2022/12/15 03:24:33;;;;;;;30.27;15.48;;;;;;;;;;5049285;28;20539;-59
2022/12/15 03:26:59;;;;;;;29.88;14.80;;;;;;;;;;5050007;28;20101;-61
2022/12/15 03:29:25;;;;;;;32.63;15.35;;;;;;;;;;5051034;28;20505;-61
2022/12/15 03:31:51;;;;;;;31.90;15.35;;;;;;;;;;5051061;28;20044;-60
2022/12/15 03:34:17;;;;;;;29.15;16.25;;;;;;;;;;5050198;28;20025;-63
2022/12/15 03:36:43;;;;;;;35.63;15.13;;;;;;;;;;5050465;28;20491;-61
2022/12/15 03:39:09;;;;;;;29.05;15.77;;;;;;;;;;5051374;28;20040;-60
2022/12/15 03:41:35;;;;;;;30.23;15.80;;;;;;;;;;5054039;28;20017;-59
2022/12/15 03:44:01;;;;;;;27.75;15.48;;;;;;;;;;5054281;28;20032;-61
2022/12/15 03:46:27;;;;;;;32.83;16.50;;;;;;;;;;5054879;28;20481;-62
2022/12/15 03:48:53;;;;;;;32.15;16.02;;;;;;;;;;5054151;28;20017;-61
2022/12/15 03:51:20;;;;;;;27.25;15.73;;;;;;;;;;5055431;28;20021;-62
2022/12/15 03:53:48;;;;;;;34.17;16.90;;;;;;;;;;5038968;28;20021;-62
2022/12/15 03:56:15;;;;;;;32.40;16.42;;;;;;;;;;5034929;28;20021;-62
2022/12/15 03:58:41;;;;;;;37.17;18.63;;;;;;;;;;5035264;28;20028;-63
2022/12/15 04:01:22;;;;;;;30.88;16.80;;;;;;;;;;5035425;28;20462;-62
2022/12/15 04:03:48;;;;;;;29.85;16.02;;;;;;;;;;5034297;28;20048;-62
2022/12/15 04:06:14;;;;;;;36.35;17.52;;;;;;;;;;5035428;28;20029;-61
2022/12/15 04:08:40;;;;;;;31.77;15.23;;;;;;;;;;5034747;28;20044;-62
2022/12/15 04:11:06;;;;;;;36.90;17.70;;;;;;;;;;5035036;28;20029;-62
2022/12/15 04:13:32;;;;;;;32.17;17.42;;;;;;;;;;5034798;28;20061;-62
2022/12/15 04:16:00;;;;;;;37.75;18.10;;;;;;;;;;5033225;28;20079;-58
2022/12/15 04:18:26;;;;;;;32.55;17.30;;;;;;;;;;5033003;28;20108;-61
2022/12/15 04:20:52;;;;;;;33.83;16.48;;;;;;;;;;5034273;28;20386;-62
2022/12/15 04:23:18;;;;;;;33.88;17.45;;;;;;;;;;5033645;28;20017;-62
2022/12/15 05:31:52;;;;;;;31.85;18.02;;;;;;;;;;5052838;28;20048;-58
2022/12/15 05:34:21;;;;;;;32.53;17.67;;;;;;;;;;5051704;28;20039;-61
2022/12/15 05:36:47;;;;;;;34.33;17.85;;;;;;;;;;5052572;28;20021;-60
2022/12/15 05:39:13;;;;;;;33.97;18.35;;;;;;;;;;5035685;23;20051;-70
2022/12/15 05:41:39;;;;;;;39.90;18.52;;;;;;;;;;4973798;28;20038;-70
2022/12/15 05:44:05;;;;;;;31.00;17.60;;;;;;;;;;4971803;28;20038;-71
2022/12/15 05:46:31;;;;;;;38.42;18.25;;;;;;;;;;4973631;28;20093;-70
2022/12/15 05:48:57;;;;;;;33.92;18.38;;;;;;;;;;4972080;28;20066;-70
2022/12/15 05:51:23;;;;;;;39.67;18.50;;;;;;;;;;4973746;28;20027;-69
2022/12/15 05:53:49;;;;;;;37.30;20.40;;;;;;;;;;4971757;28;20019;-69
2022/12/15 05:56:15;;;;;;;33.85;18.65;;;;;;;;;;4973719;28;20472;-68
2022/12/15 05:58:42;;;;;;;37.00;19.45;;;;;;;;;;4973173;28;20030;-69
2022/12/15 06:01:10;;;;;;;39.83;20.00;;;;;;;;;;4972517;28;20027;-70
2022/12/15 06:03:36;;;;;;;33.72;19.60;;;;;;;;;;4972430;28;20455;-69
2022/12/15 06:06:06;;;;;;;37.72;20.77;;;;;;;;;;4972986;28;20059;-70
2022/12/15 06:08:36;;;;;;;35.28;19.75;;;;;;;;;;4972340;28;20571;-71
2022/12/15 06:11:06;;;;;;;39.22;18.63;;;;;;;;;;4972761;28;20522;-68
2022/12/15 06:13:35;;;;;;;35.63;20.08;;;;;;;;;;4972701;28;20035;-69
2022/12/15 06:16:03;;;;;;;33.97;18.58;;;;;;;;;;4973503;28;20057;-68
2022/12/15 06:18:30;;;;;;;34.40;18.85;;;;;;;;;;4971642;28;20038;-69
2022/12/15 06:20:57;;;;;;;33.10;19.00;;;;;;;;;;4973225;28;20098;-69
2022/12/15 06:23:23;;;;;;;43.83;20.25;;;;;;;;;;4971389;28;20027;-71
2022/12/15 06:25:49;;;;;;;34.65;20.05;;;;;;;;;;4973171;28;20056;-69
2022/12/15 06:28:15;;;;;;;41.95;19.33;;;;;;;;;;4970187;28;20430;-70
2022/12/15 06:30:41;;;;;;;34.00;18.45;;;;;;;;;;4972959;28;20030;-70
2022/12/15 06:33:07;;;;;;;37.78;19.08;;;;;;;;;;4972316;28;20059;-69
2022/12/15 06:35:37;;;;;;;30.48;16.45;;;;;;;;;;4973110;28;20027;-70
2022/12/15 06:38:03;;;;;;;33.97;18.45;;;;;;;;;;4972646;28;20023;-71
2022/12/15 06:40:29;;;;;;;34.72;18.63;;;;;;;;;;4972581;28;20038;-70
2022/12/15 06:42:55;;;;;;;36.45;19.23;;;;;;;;;;4971210;28;20026;-71
2022/12/15 06:45:21;;;;;;;34.10;19.30;;;;;;;;;;4971913;28;20488;-69
2022/12/15 06:47:48;;;;;;;40.10;21.52;;;;;;;;;;4971102;28;20169;-68
2022/12/15 06:50:14;;;;;;;39.45;20.77;;;;;;;;;;4973001;28;20109;-70
2022/12/15 06:52:40;;;;;;;34.50;19.85;;;;;;;;;;4972952;28;20118;-69
2022/12/15 06:55:07;;;;;;;37.30;21.45;;;;;;;;;;4970733;28;20094;-69
2022/12/15 06:57:33;;;;;;;40.00;19.80;;;;;;;;;;4972514;28;20022;-69
2022/12/15 06:59:59;;;;;;;36.63;20.83;;;;;;;;;;4972640;28;20349;-69
2022/12/15 07:02:25;;;;;;;41.53;21.63;;;;;;;;;;4971770;28;20065;-69
2022/12/15 07:04:51;;;;;;;40.65;20.92;;;;;;;;;;4971723;28;20046;-68
2022/12/15 07:07:17;;;;;;;42.40;20.92;;;;;;;;;;4971200;28;20031;-70
2022/12/15 07:09:43;;;;;;;37.70;20.55;;;;;;;;;;4971838;28;20031;-67
2022/12/15 07:12:09;;;;;;;37.85;21.42;;;;;;;;;;4973013;28;20027;-70
2022/12/15 07:14:35;;;;;;;40.45;24.05;;;;;;;;;;4970696;28;20053;-66
2022/12/15 07:17:01;;;;;;;42.00;20.50;;;;;;;;;;4975424;28;20527;-68
2022/12/15 07:19:28;;;;;;;37.80;21.35;;;;;;;;;;4976714;28;20023;-70
2022/12/15 07:21:56;;;;;;;41.35;20.98;;;;;;;;;;4976069;28;20035;-69
2022/12/15 07:24:22;;;;;;;41.15;19.95;;;;;;;;;;4973694;28;20030;-68
2022/12/15 07:26:48;;;;;;;38.72;23.55;;;;;;;;;;4974438;28;20591;-69
2022/12/15 07:29:15;;;;;;;42.65;22.80;;;;;;;;;;4973882;28;20054;-68
2022/12/15 07:31:41;;;;;;;39.80;20.85;;;;;;;;;;4975170;28;20035;-68
2022/12/15 07:34:07;;;;;;;40.00;21.27;;;;;;;;;;4977354;28;20034;-69
2022/12/15 07:36:33;;;;;;;40.80;21.38;;;;;;;;;;4975778;28;20019;-66
2022/12/15 07:39:00;;;;;;;44.25;22.15;;;;;;;;;;4974931;28;20106;-68
2022/12/15 07:41:26;;;;;;;42.55;20.73;;;;;;;;;;4976149;28;20023;-66
2022/12/15 07:43:52;;;;;;;40.13;21.02;;;;;;;;;;4975193;28;20030;-68
2022/12/15 07:46:19;;;;;;;36.00;20.85;;;;;;;;;;4975662;28;20081;-69
2022/12/15 07:48:45;;;;;;;37.15;20.33;;;;;;;;;;4974389;28;20034;-68
2022/12/15 07:51:11;;;;;;;43.13;21.77;;;;;;;;;;4976657;28;20063;-67
2022/12/15 07:53:37;;;;;;;43.88;22.40;;;;;;;;;;4987316;28;20474;-66
2022/12/15 07:56:04;;;;;;;41.67;23.30;;;;;;;;;;4994444;28;20026;-69
2022/12/15 07:58:31;;;;;;;38.15;21.45;;;;;;;;;;4988898;28;20323;-68
2022/12/15 08:01:01;;;;;;;42.45;23.35;;;;;;;;;;4975403;28;20384;-67
2022/12/15 08:03:27;;;;;;;35.75;20.83;;;;;;;;;;4967084;28;20027;-70
2022/12/15 08:05:54;;;;;;;43.88;23.20;;;;;;;;;;4976407;28;20074;-67
2022/12/15 08:08:21;;;;;;;39.75;22.05;;;;;;;;;;4995745;28;20136;-68
2022/12/15 08:10:47;;;;;;;42.22;22.35;;;;;;;;;;4995811;28;20086;-69
2022/12/15 08:13:13;;;;;;;35.67;20.70;;;;;;;;;;4991939;28;20121;-69
2022/12/15 08:15:40;;;;;;;38.72;20.38;;;;;;;;;;4993205;28;20035;-63
2022/12/15 08:18:07;;;;;;;44.03;20.73;;;;;;;;;;4983392;28;20027;-65
2022/12/15 08:20:34;;;;;;;42.97;23.02;;;;;;;;;;4974787;28;20026;-64
2022/12/15 08:23:00;;;;;;;42.88;22.50;;;;;;;;;;4974915;28;20027;-66
2022/12/15 08:25:30;;;;;;;47.92;23.42;;;;;;;;;;4973805;28;20050;-66
2022/12/15 08:27:56;;;;;;;40.65;21.90;;;;;;;;;;4974971;28;20034;-66
2022/12/15 08:30:23;;;;;;;38.53;22.17;;;;;;;;;;4973865;28;20026;-65
2022/12/15 08:32:50;;;;;;;44.63;22.90;;;;;;;;;;4974106;28;20415;-66
2022/12/15 08:35:16;;;;;;;46.25;22.98;;;;;;;;;;4973939;28;20034;-66
2022/12/15 08:37:42;;;;;;;44.15;23.60;;;;;;;;;;4972983;28;20033;-66
2022/12/15 08:40:08;;;;;;;44.80;24.52;;;;;;;;;;4973559;28;20034;-66
2022/12/15 08:42:35;;;;;;;44.33;24.90;;;;;;;;;;4974493;28;20042;-67
2022/12/15 08:45:01;;;;;;;36.33;22.80;;;;;;;;;;4974034;28;20023;-64
2022/12/15 08:47:27;;;;;;;43.95;24.15;;;;;;;;;;4974732;28;20118;-67
2022/12/15 08:49:54;;;;;;;41.47;23.27;;;;;;;;;;4973772;28;20078;-66
2022/12/15 08:52:20;;;;;;;40.05;20.85;;;;;;;;;;4972425;28;20082;-66
2022/12/15 08:55:04;;;;;;;45.20;23.55;;;;;;;;;;4986211;28;20070;-69
2022/12/15 08:57:30;;;;;;;48.15;23.70;;;;;;;;;;4995298;28;20097;-70
2022/12/15 08:59:56;;;;;;;43.08;24.02;;;;;;;;;;4986735;28;20027;-67
2022/12/15 09:02:22;;;;;;;48.85;24.55;;;;;;;;;;4973476;28;20042;-68
2022/12/15 09:04:50;;;;;;;42.95;25.80;;;;;;;;;;4973814;28;20456;-69
2022/12/15 09:07:17;;;;;;;44.80;24.23;;;;;;;;;;4974852;28;20574;-69
2022/12/15 09:09:43;;;;;;;41.40;24.73;;;;;;;;;;4974180;28;20030;-67
2022/12/15 09:12:11;;;;;;;51.28;27.70;;;;;;;;;;4972039;28;20033;-68
2022/12/15 09:14:37;;;;;;;43.05;23.77;;;;;;;;;;4972958;28;20407;-67
2022/12/15 09:17:03;;;;;;;45.65;24.48;;;;;;;;;;4972137;28;20048;-68
2022/12/15 09:19:29;;;;;;;46.53;22.75;;;;;;;;;;4973464;28;20578;-69
2022/12/15 09:21:56;;;;;;;38.47;22.30;;;;;;;;;;4975797;28;20026;-68
2022/12/15 09:24:23;;;;;;;41.38;23.35;;;;;;;;;;4974070;28;20023;-67
2022/12/15 09:26:49;;;;;;;42.17;23.48;;;;;;;;;;4974086;28;20498;-68
2022/12/15 09:29:18;;;;;;;43.25;25.52;;;;;;;;;;4974477;28;20227;-67
2022/12/15 09:31:45;;;;;;;43.75;23.83;;;;;;;;;;4973801;28;20027;-67
2022/12/15 09:34:16;;;;;;;44.25;22.75;;;;;;;;;;4971207;28;20019;-67
2022/12/15 09:36:42;;;;;;;46.08;25.33;;;;;;;;;;4973256;28;20055;-67
2022/12/15 09:39:10;;;;;;;43.67;24.67;;;;;;;;;;4971027;28;20035;-67
2022/12/15 09:41:37;;;;;;;43.58;24.23;;;;;;;;;;4973306;28;20054;-67
2022/12/15 09:44:06;;;;;;;45.08;24.90;;;;;;;;;;4972805;28;20034;-68
2022/12/15 09:46:38;;;;;;;44.50;25.02;;;;;;;;;;4972965;28;20550;-67
2022/12/15 09:49:09;;;;;;;53.78;27.48;;;;;;;;;;4972659;28;20423;-68
2022/12/15 09:51:53;;;;;;;45.25;25.08;;;;;;;;;;4972458;28;20031;-67
2022/12/15 09:54:21;;;;;;;42.92;25.17;;;;;;;;;;4971323;28;20054;-67
2022/12/15 09:56:50;;;;;;;45.55;24.30;;;;;;;;;;4972218;28;20089;-66
2022/12/15 09:59:25;;;;;;;44.38;24.40;;;;;;;;;;4972694;28;20518;-68
2022/12/15 10:02:06;;;;;;;46.30;25.27;;;;;;;;;;4972913;28;20027;-67
2022/12/15 10:04:48;;;;;;;45.80;24.10;;;;;;;;;;4971773;28;20475;-67
2022/12/15 10:07:35;;;;;;;47.40;26.05;;;;;;;;;;4971019;28;20035;-67
2022/12/15 10:10:23;;;;;;;40.95;24.88;;;;;;;;;;4971595;28;20059;-67
2022/12/15 10:12:50;;;;;;;48.50;24.77;;;;;;;;;;4971289;28;20031;-67
2022/12/15 10:15:21;;;;;;;41.08;24.30;;;;;;;;;;4971883;28;20031;-67
2022/12/15 10:17:49;;;;;;;46.10;24.48;;;;;;;;;;4973175;28;20069;-67
2022/12/15 10:20:23;;;;;;;46.75;25.92;;;;;;;;;;4973153;28;20026;-67
2022/12/15 10:22:50;;;;;;;43.15;23.92;;;;;;;;;;4971926;28;20019;-68
2022/12/15 10:25:22;;;;;;;42.22;24.75;;;;;;;;;;4970130;28;20030;-67
2022/12/15 10:28:03;;;;;;;44.75;25.85;;;;;;;;;;4972841;28;20029;-67
2022/12/15 10:30:29;;;;;;;41.65;24.92;;;;;;;;;;4972564;28;20101;-67
2022/12/15 10:32:58;;;;;;;43.65;23.65;;;;;;;;;;4969619;28;20037;-66
2022/12/15 10:35:26;;;;;;;45.85;27.90;;;;;;;;;;4970535;28;20065;-66
2022/12/15 10:37:57;;;;;;;42.50;24.45;;;;;;;;;;4972764;28;20019;-66
2022/12/15 10:40:43;;;;;;;40.00;23.58;;;;;;;;;;4972036;28;20403;-67
2022/12/15 10:43:16;;;;;;;44.10;23.65;;;;;;;;;;4971511;28;20039;-67
2022/12/15 10:45:42;;;;;;;43.67;25.17;;;;;;;;;;4972221;28;20039;-66
2022/12/15 10:48:17;;;;;;;40.83;22.95;;;;;;;;;;4972098;28;20442;-67
2022/12/15 10:50:43;;;;;;;40.38;22.48;;;;;;;;;;4976215;28;20026;-67
2022/12/15 10:53:29;;;;;;;40.80;23.83;;;;;;;;;;4976645;28;20035;-67
2022/12/15 10:56:01;;;;;;;37.92;23.05;;;;;;;;;;4977041;28;20056;-66
2022/12/15 10:58:27;;;;;;;40.75;24.60;;;;;;;;;;4976584;28;20022;-67
2022/12/15 11:01:04;;;;;;;38.35;23.25;;;;;;;;;;4977195;28;20479;-67
2022/12/15 11:03:35;;;;;;;42.83;23.15;;;;;;;;;;4976138;28;20449;-67
2022/12/15 11:06:01;;;;;;;38.33;25.20;;;;;;;;;;4976546;28;20129;-68
2022/12/15 11:08:28;;;;;;;42.55;23.27;;;;;;;;;;4975182;28;20027;-67
2022/12/15 11:13:40;;;;;;;38.10;24.60;;;;;;;;;;4975854;28;20034;-67
2022/12/15 11:16:13;;;;;;;33.38;23.33;;;;;;;;;;4975933;28;20160;-69
2022/12/15 11:18:42;;;;;;;35.17;22.83;;;;;;;;;;4975776;28;20023;-68
2022/12/15 11:21:14;;;;;;;35.35;22.63;;;;;;;;;;4976001;28;20106;-67
2022/12/15 11:23:40;;;;;;;34.53;22.35;;;;;;;;;;4976229;28;20073;-67
2022/12/15 11:26:25;;;;;;;37.83;21.73;;;;;;;;;;4976162;28;20141;-69
2022/12/15 11:28:57;;;;;;;37.45;24.15;;;;;;;;;;4976303;28;20554;-69
2022/12/15 11:31:36;;;;;;;38.22;22.35;;;;;;;;;;4976885;28;20110;-68
2022/12/15 11:34:02;;;;;;;34.60;24.23;;;;;;;;;;4974918;28;20547;-67
2022/12/15 11:36:38;;;;;;;32.88;21.27;;;;;;;;;;4976024;28;20097;-65
2022/12/15 11:39:42;;;;;;;34.88;23.15;;;;;;;;;;4999990;23;20034;-64
2022/12/15 11:42:08;;;;;;;33.28;23.45;;;;;;;;;;4973835;28;20148;-64
2022/12/15 11:44:44;;;;;;;34.95;21.88;;;;;;;;;;4972731;28;20022;-65
2022/12/15 11:47:22;;;;;;;32.65;21.83;;;;;;;;;;4995655;28;20042;-65
2022/12/15 11:49:57;;;;;;;37.08;22.02;;;;;;;;;;5014516;28;20807;-66
2022/12/15 11:52:23;;;;;;;34.22;21.25;;;;;;;;;;5013193;28;20410;-64
2022/12/15 11:54:49;;;;;;;33.25;22.40;;;;;;;;;;5013843;28;20033;-64
2022/12/15 11:57:34;;;;;;;35.15;21.50;;;;;;;;;;5013442;28;20041;-63
2022/12/15 12:00:03;;;;;;;34.45;22.92;;;;;;;;;;5014465;28;20025;-65
2022/12/15 12:02:43;;;;;;;33.10;21.63;;;;;;;;;;5011206;28;20108;-65
2022/12/15 12:05:25;;;;;;;35.85;21.73;;;;;;;;;;5013681;28;20038;-64
2022/12/15 12:08:10;;;;;;;39.03;24.00;;;;;;;;;;5014401;28;20026;-63
2022/12/15 12:10:42;;;;;;;37.03;22.00;;;;;;;;;;5012858;28;20040;-65
2022/12/15 12:13:11;;;;;;;35.00;22.38;;;;;;;;;;5013419;28;20293;-65
2022/12/15 12:15:49;;;;;;;34.17;22.05;;;;;;;;;;5012259;28;20030;-64
2022/12/15 12:18:21;;;;;;;33.17;22.35;;;;;;;;;;5013779;28;20033;-64
2022/12/15 12:21:07;;;;;;;37.40;24.77;;;;;;;;;;5013878;28;20100;-65
2022/12/15 12:23:47;;;;;;;32.47;23.38;;;;;;;;;;5013325;28;20018;-59
2022/12/15 12:26:16;;;;;;;35.40;21.92;;;;;;;;;;5014098;28;20128;-62
2022/12/15 12:28:42;;;;;;;37.83;21.90;;;;;;;;;;5013644;28;20033;-65
2022/12/15 12:31:17;;;;;;;33.88;21.35;;;;;;;;;;5013471;28;20026;-65
2022/12/15 12:33:45;;;;;;;34.55;22.02;;;;;;;;;;5012677;28;20398;-64
2022/12/15 12:36:12;;;;;;;33.20;21.20;;;;;;;;;;5012624;28;20120;-64
2022/12/15 12:38:45;;;;;;;33.17;21.60;;;;;;;;;;5013535;28;20447;-66
2022/12/15 12:41:10;;;;;;;34.42;21.90;;;;;;;;;;5012227;28;20378;-63
2022/12/15 12:43:42;;;;;;;35.03;22.42;;;;;;;;;;5012180;28;20022;-65
2022/12/15 12:46:21;;;;;;;34.88;21.85;;;;;;;;;;5011530;28;20038;-65
2022/12/15 12:48:50;;;;;;;34.25;21.45;;;;;;;;;;5011952;28;20026;-65
2022/12/15 12:51:16;;;;;;;34.63;22.58;;;;;;;;;;5013672;28;20109;-66
2022/12/15 12:53:42;;;;;;;35.15;22.48;;;;;;;;;;5013239;28;20056;-65
2022/12/15 12:56:28;;;;;;;31.83;21.80;;;;;;;;;;5012977;28;20106;-65
2022/12/15 12:58:54;;;;;;;33.90;22.48;;;;;;;;;;5013183;28;20689;-64
2022/12/15 13:01:26;;;;;;;33.50;22.60;;;;;;;;;;5012166;28;20068;-62
2022/12/15 13:04:08;;;;;;;32.72;22.67;;;;;;;;;;5012385;28;20022;-63
2022/12/15 13:06:34;;;;;;;32.80;22.63;;;;;;;;;;5013358;28;20030;-64
2022/12/15 13:09:20;;;;;;;32.28;22.83;;;;;;;;;;5012882;28;20052;-63
2022/12/15 13:11:51;;;;;;;32.58;23.25;;;;;;;;;;5011200;28;20025;-65
2022/12/15 13:14:19;;;;;;;40.35;23.23;;;;;;;;;;5011473;28;20060;-64
2022/12/15 13:16:46;;;;;;;34.53;23.70;;;;;;;;;;5011424;28;20521;-65
2022/12/15 13:19:12;;;;;;;30.65;22.15;;;;;;;;;;5012756;28;20053;-64
2022/12/15 13:21:43;;;;;;;32.33;23.25;;;;;;;;;;5009610;28;20126;-65
2022/12/15 13:24:25;;;;;;;35.58;24.38;;;;;;;;;;5012180;28;20060;-65
2022/12/15 13:26:51;;;;;;;35.85;23.30;;;;;;;;;;5012846;28;20025;-65
2022/12/15 13:29:19;;;;;;;33.92;22.55;;;;;;;;;;5012630;28;20025;-61
2022/12/15 13:31:49;;;;;;;34.90;23.15;;;;;;;;;;5010239;28;20076;-65
2022/12/15 13:34:17;;;;;;;34.75;23.05;;;;;;;;;;5012592;28;20022;-62
2022/12/15 13:36:48;;;;;;;32.85;24.05;;;;;;;;;;5011446;28;20646;-66
2022/12/15 13:39:17;;;;;;;35.72;24.65;;;;;;;;;;5012207;28;20117;-65
2022/12/15 13:42:03;;;;;;;37.75;25.13;;;;;;;;;;5012625;28;20395;-64
2022/12/15 13:44:35;;;;;;;31.92;23.33;;;;;;;;;;5010809;28;20030;-64
2022/12/15 13:47:12;;;;;;;36.15;24.77;;;;;;;;;;5012441;28;20384;-66
2022/12/15 13:49:43;;;;;;;37.90;24.75;;;;;;;;;;5017228;28;20519;-64
2022/12/15 13:52:13;;;;;;;36.97;23.80;;;;;;;;;;5012053;28;20030;-65
2022/12/15 13:54:42;;;;;;;35.33;24.00;;;;;;;;;;5009959;28;20096;-63
2022/12/15 13:57:08;;;;;;;36.20;24.30;;;;;;;;;;5012161;28;20037;-66
2022/12/15 13:59:34;;;;;;;35.92;24.73;;;;;;;;;;5011970;28;20022;-61
2022/12/15 14:02:00;;;;;;;37.35;23.70;;;;;;;;;;5010956;28;20121;-65
2022/12/15 14:04:26;;;;;;;36.25;23.58;;;;;;;;;;5011570;28;20069;-64
2022/12/15 14:06:52;;;;;;;38.38;24.15;;;;;;;;;;5012274;28;20496;-65
2022/12/15 14:09:27;;;;;;;37.70;24.60;;;;;;;;;;5012471;28;20029;-65
2022/12/15 14:11:53;;;;;;;34.88;21.92;;;;;;;;;;5011784;28;20109;-64
2022/12/15 14:14:28;;;;;;;35.75;24.25;;;;;;;;;;5011355;28;20029;-64
2022/12/15 14:16:59;;;;;;;32.85;22.23;;;;;;;;;;5012520;28;20049;-63
2022/12/15 14:19:25;;;;;;;34.83;23.77;;;;;;;;;;5012254;28;20029;-62
2022/12/15 14:21:56;;;;;;;35.05;23.80;;;;;;;;;;5012455;28;20018;-64
2022/12/15 14:24:26;;;;;;;34.35;24.27;;;;;;;;;;5011093;28;20033;-63
2022/12/15 14:26:53;;;;;;;34.13;23.50;;;;;;;;;;5010992;28;20026;-63
2022/12/15 14:29:19;;;;;;;36.53;25.33;;;;;;;;;;5011485;28;20026;-59
2022/12/15 14:31:47;;;;;;;38.13;25.58;;;;;;;;;;5010304;28;20022;-65
2022/12/15 14:34:13;;;;;;;34.90;23.48;;;;;;;;;;5009342;28;20026;-65
2022/12/15 14:36:40;;;;;;;37.92;25.33;;;;;;;;;;5011718;28;20048;-65
2022/12/15 14:39:10;;;;;;;34.38;24.77;;;;;;;;;;5011674;28;20079;-65
2022/12/15 14:41:38;;;;;;;35.60;23.38;;;;;;;;;;5011445;28;20041;-63
2022/12/15 14:44:05;;;;;;;35.97;22.33;;;;;;;;;;5011034;28;20072;-65
2022/12/15 14:46:32;;;;;;;35.97;23.40;;;;;;;;;;5012044;28;20319;-65
2022/12/15 14:49:00;;;;;;;41.47;25.60;;;;;;;;;;5009409;28;20125;-65
2022/12/15 14:51:27;;;;;;;38.50;24.70;;;;;;;;;;5011039;28;20025;-65
2022/12/15 14:53:54;;;;;;;38.95;24.50;;;;;;;;;;5008994;28;20037;-61
2022/12/15 14:56:20;;;;;;;38.55;25.60;;;;;;;;;;5010990;28;20026;-64
2022/12/15 14:58:47;;;;;;;43.58;26.48;;;;;;;;;;5009815;28;20026;-64
2022/12/15 15:01:24;;;;;;;41.20;26.33;;;;;;;;;;5010899;28;20022;-65
2022/12/15 15:03:58;;;;;;;37.78;24.05;;;;;;;;;;5008960;28;20022;-60
2022/12/15 15:06:28;;;;;;;40.75;23.10;;;;;;;;;;5009942;28;20204;-64
2022/12/15 15:08:55;;;;;;;38.97;23.83;;;;;;;;;;5011440;28;20446;-64
2022/12/15 15:11:28;;;;;;;38.05;23.88;;;;;;;;;;5011643;28;20514;-64
2022/12/15 15:13:55;;;;;;;41.40;25.02;;;;;;;;;;5010991;28;20490;-66
2022/12/15 15:16:21;;;;;;;39.47;23.67;;;;;;;;;;5009810;28;20517;-65
2022/12/15 15:18:51;;;;;;;44.45;26.08;;;;;;;;;;5011460;28;20022;-62
2022/12/15 15:21:20;;;;;;;41.58;26.08;;;;;;;;;;5008854;28;20030;-61
2022/12/15 15:23:46;;;;;;;;;;;;;;;;;;5009494;28;20026;-65
2022/12/15 15:26:15;;;;;;;40.60;25.23;;;;;;;;;;5012074;28;19960;-65
2022/12/15 15:28:42;;;;;;;44.25;24.35;;;;;;;;;;5010023;28;20030;-63
2022/12/15 15:31:27;;;;;;;42.27;24.50;;;;;;;;;;4657189;28;9999783;-64
2022/12/15 15:33:55;;;;;;;44.55;25.27;;;;;;;;;;5005349;28;20104;-65
2022/12/15 15:36:22;;;;;;;42.78;26.15;;;;;;;;;;5008593;28;20017;-63
2022/12/15 15:38:48;;;;;;;48.17;25.73;;;;;;;;;;5007422;28;20487;-63
2022/12/15 15:41:14;;;;;;;52.13;29.92;;;;;;;;;;4990613;28;20026;-65
2022/12/15 15:43:41;;;;;;;103.57;58.20;;;;;;;;;;4989869;28;20417;-64
2022/12/15 15:46:10;;;;;;;83.78;48.45;;;;;;;;;;4992142;28;20383;-61
2022/12/15 15:48:37;;;;;;;73.15;43.05;;;;;;;;;;5005673;28;20033;-66
2022/12/15 15:51:04;;;;;;;69.57;41.40;;;;;;;;;;5010539;28;20125;-64
2022/12/15 15:53:32;;;;;;;94.10;49.83;;;;;;;;;;5010191;28;20447;-64
2022/12/15 15:55:58;;;;;;;46.50;29.80;;;;;;;;;;5011159;28;20026;-64
2022/12/15 15:58:24;;;;;;;50.65;30.42;;;;;;;;;;5011853;28;20037;-64
2022/12/15 16:00:52;;;;;;;53.25;31.77;;;;;;;;;;5011087;28;20021;-64
2022/12/15 16:03:18;;;;;;;59.60;32.43;;;;;;;;;;5010205;28;20537;-64
2022/12/15 16:05:44;;;;;;;64.40;35.05;;;;;;;;;;4995594;28;20037;-60
2022/12/15 16:08:16;;;;;;;52.90;31.75;;;;;;;;;;4991609;28;20073;-64
2022/12/15 16:10:46;;;;;;;53.55;30.95;;;;;;;;;;4991202;28;20196;-62
2022/12/15 16:13:14;;;;;;;51.08;28.13;;;;;;;;;;4991248;28;20064;-65
2022/12/15 16:15:40;;;;;;;56.28;29.80;;;;;;;;;;5020233;28;20248;-62
2022/12/15 16:18:06;;;;;;;48.60;29.45;;;;;;;;;;5030065;28;20342;-60
2022/12/15 16:20:33;;;;;;;53.60;29.15;;;;;;;;;;5028406;28;20053;-65
2022/12/15 16:23:01;;;;;;;51.35;30.17;;;;;;;;;;5030577;28;20203;-63
2022/12/15 16:25:32;;;;;;;50.97;28.77;;;;;;;;;;5029777;28;20042;-62
2022/12/15 16:27:58;;;;;;;53.05;29.50;;;;;;;;;;5030109;28;20065;-64
2022/12/15 16:30:25;;;;;;;46.00;28.30;;;;;;;;;;5022130;28;20030;-62
2022/12/15 16:32:52;;;;;;;49.78;27.80;;;;;;;;;;5010170;28;20026;-65
2022/12/15 16:35:18;;;;;;;46.10;28.40;;;;;;;;;;5009970;28;20149;-66
2022/12/15 16:37:45;;;;;;;50.20;28.65;;;;;;;;;;5012006;28;20093;-63
2022/12/15 16:40:16;;;;;;;55.05;30.23;;;;;;;;;;5010350;28;20637;-63
2022/12/15 16:42:43;;;;;;;50.45;27.90;;;;;;;;;;5009645;28;20033;-61
2022/12/15 16:45:16;;;;;;;55.70;28.85;;;;;;;;;;5009058;28;20029;-61
2022/12/15 16:47:43;;;;;;;53.03;29.30;;;;;;;;;;5009445;28;20049;-65